KMIB

Minot AFB Airport

Minot, North Dakota, USA
METAR KMIB 271156Z AUTO 04013KT 10SM CLR 17/17 A2974 RMK AO2 PRESFR SLP067 60033 70033 T01650165 10228 20165 58013 $
Observed Flight Rules
May-27 @ 11:56 UTC (5 minutes ago) Visual Flight Rules
Wind Visibility Clouds
40° at 13 knots 10 miles
  • Clear skies
Temperatures Readings
Current 17°C / 63°F
Dewpoint 17°C / 63°F
Humidity 100%
Altimeter 29.74" Hg
Pressure 1006.7 hPa
Elevation 508
METAR KMIB 271156Z AUTO 04013KT 10SM CLR 17/17 A2974 RMK AO2 PRESFR SLP067 60033 70033 T01650165 10228 20165 58013 $
Observed Flight Rules
May-27 @ 11:56 UTC
(5 minutes ago)
VFR
Wind Visibility
40° at 13 knots 10 miles
Clouds
  • Clear skies
Temperature Dewpoint
17°C / 63°F 17°C / 63°F
Humidity Altimeter Pressure
100% 29.74" Hg 1006.7 hPa